createdAt,value
2019-04-21T00:02:30.754Z,47.79
2019-04-21T00:05:22.939Z,48.39
2019-04-21T00:07:50.501Z,48.77
2019-04-21T00:10:23.519Z,49.23
2019-04-21T00:12:45.933Z,49.47
2019-04-21T00:15:18.128Z,50.62
2019-04-21T00:17:43.569Z,50.62
2019-04-21T00:20:23.857Z,51.17
2019-04-21T00:22:58.768Z,51.96
2019-04-21T00:25:32.197Z,51.96
2019-04-21T00:28:16.753Z,52.60
2019-04-21T00:30:44.243Z,52.62
2019-04-21T00:33:03.104Z,52.73
2019-04-21T00:35:27.457Z,52.75
2019-04-21T00:38:17.109Z,52.99
2019-04-21T00:40:47.928Z,52.79
2019-04-21T00:43:15.184Z,52.48
2019-04-21T00:45:43.476Z,52.68
2019-04-21T00:48:23.291Z,53.30
2019-04-21T00:51:14.990Z,53.85
2019-04-21T00:53:35.712Z,54.29
2019-04-21T00:56:11.263Z,54.59
2019-04-21T00:58:53.678Z,54.68
2019-04-21T01:01:09.014Z,54.91
2019-04-21T01:03:43.456Z,55.40
2019-04-21T01:06:14.258Z,55.64
2019-04-21T01:08:41.435Z,55.48
2019-04-21T01:11:15.604Z,55.76
2019-04-21T01:13:45.507Z,55.48
2019-04-21T01:16:20.830Z,55.49
2019-04-21T01:18:43.664Z,55.90
2019-04-21T01:20:56.310Z,56.27
2019-04-21T01:23:27.448Z,56.43
2019-04-21T01:26:13.694Z,56.60
2019-04-21T01:28:46.616Z,56.81
2019-04-21T01:31:17.314Z,56.70
2019-04-21T01:33:50.747Z,56.93
2019-04-21T01:36:18.099Z,57.14
2019-04-21T01:38:55.112Z,57.29
2019-04-21T01:41:35.194Z,57.65
2019-04-21T01:43:57.277Z,58.21
2019-04-21T01:46:27.256Z,58.05
2019-04-21T01:48:57.045Z,58.63
2019-04-21T01:51:32.152Z,59.05
2019-04-21T01:54:11.240Z,59.05
2019-04-21T01:57:01.615Z,59.67
2019-04-21T01:59:32.004Z,59.67
2019-04-21T02:02:15.973Z,60.31
2019-04-21T02:04:50.067Z,59.93
2019-04-21T02:07:13.094Z,60.39
2019-04-21T02:09:42.065Z,60.83
2019-04-21T02:12:20.468Z,60.91
2019-04-21T02:15:04.850Z,60.70
2019-04-21T02:17:20.396Z,60.70
2019-04-21T02:19:46.345Z,61.24
2019-04-21T02:22:28.751Z,61.25
2019-04-21T02:24:56.743Z,61.33
2019-04-21T02:27:26.184Z,61.47
2019-04-21T02:30:00.174Z,61.47
2019-04-21T02:37:46.787Z,62.28
2019-04-21T02:40:11.231Z,62.28
2019-04-21T02:42:46.486Z,62.57
2019-04-21T02:45:17.186Z,62.57
2019-04-21T02:55:25.607Z,61.75
2019-04-21T02:57:59.405Z,61.89
2019-04-21T03:00:30.350Z,62.00
2019-04-21T03:03:34.364Z,62.23
2019-04-21T03:06:32.981Z,62.79
2019-04-21T03:09:05.913Z,62.72
2019-04-21T03:11:25.125Z,62.40
2019-04-21T03:14:13.659Z,62.41
2019-04-21T03:16:28.554Z,62.58
2019-04-21T03:21:38.784Z,63.04
2019-04-21T03:26:48.715Z,63.33
2019-04-21T03:29:12.128Z,63.27
2019-04-21T03:32:08.853Z,63.28
2019-04-21T03:39:11.866Z,63.36
2019-04-21T03:41:48.073Z,64.08
2019-04-21T03:44:26.682Z,64.08
2019-04-21T03:46:51.870Z,63.58
2019-04-21T03:49:40.733Z,63.58
2019-04-21T03:51:57.601Z,63.85
2019-04-21T03:54:25.218Z,64.06
2019-04-21T03:56:59.218Z,64.14
2019-04-21T03:59:30.049Z,64.47
2019-04-21T04:05:15.395Z,65.46
2019-04-21T04:08:22.549Z,65.46
2019-04-21T04:10:34.734Z,65.46
2019-04-21T04:13:05.066Z,65.39
2019-04-21T04:15:42.964Z,65.63
2019-04-21T04:18:07.656Z,65.46
2019-04-21T04:20:35.578Z,65.35
2019-04-21T04:23:07.983Z,65.11
2019-04-21T04:25:43.328Z,64.69
2019-04-21T04:28:34.980Z,65.08
2019-04-21T04:30:45.403Z,65.08
2019-04-21T04:33:20.364Z,64.48
2019-04-21T04:36:01.519Z,64.48
2019-04-21T04:38:22.281Z,64.68
2019-04-21T04:40:57.530Z,64.62
2019-04-21T04:43:24.925Z,64.43
2019-04-21T04:48:29.042Z,64.62
2019-04-21T04:51:14.831Z,64.62
2019-04-21T04:56:08.113Z,64.56
2019-04-21T04:59:10.678Z,64.56
2019-04-21T05:01:14.632Z,64.47
2019-04-21T05:09:13.307Z,64.74
2019-04-21T05:11:46.132Z,64.60
2019-04-21T05:14:19.503Z,64.31
2019-04-21T05:23:55.377Z,63.88
2019-04-21T05:26:43.240Z,63.68
2019-04-21T05:29:15.886Z,64.01
2019-04-21T05:32:21.908Z,63.88
2019-04-21T05:35:06.170Z,64.19
2019-04-21T05:37:53.801Z,63.69
2019-04-21T05:40:24.835Z,63.49
2019-04-21T05:43:03.466Z,63.59
2019-04-21T05:45:40.811Z,63.55
2019-04-21T05:50:46.132Z,63.72
2019-04-21T05:53:25.345Z,63.74
2019-04-21T05:58:25.914Z,63.33
2019-04-21T06:03:32.438Z,62.96
2019-04-21T06:06:08.555Z,62.95
2019-04-21T06:08:34.270Z,62.78
2019-04-21T06:11:28.146Z,62.59
2019-04-21T06:14:01.541Z,62.48
2019-04-21T06:16:31.873Z,62.15
2019-04-21T06:18:58.673Z,61.92
2019-04-21T06:21:28.769Z,61.75
2019-04-21T06:23:57.578Z,61.58
2019-04-21T06:26:52.334Z,61.36
2019-04-21T06:28:59.640Z,61.22
2019-04-21T06:34:06.772Z,61.00
2019-04-21T06:36:47.504Z,60.69
2019-04-21T06:41:51.629Z,59.71
2019-04-21T06:44:25.002Z,59.71
2019-04-21T06:46:53.221Z,59.42
2019-04-21T06:49:19.473Z,58.87
2019-04-21T06:51:59.984Z,58.47
2019-04-21T06:56:56.730Z,57.49
2019-04-21T06:59:31.898Z,57.22
2019-04-21T07:02:28.698Z,56.64
2019-04-21T07:04:39.603Z,56.64
2019-04-21T07:07:05.310Z,56.26
2019-04-21T07:09:36.421Z,55.98
2019-04-21T07:12:05.830Z,55.59
2019-04-21T07:14:42.124Z,55.40
2019-04-21T07:17:19.915Z,55.15
2019-04-21T07:19:48.067Z,54.83
2019-04-21T07:22:19.449Z,53.44
2019-04-21T07:24:49.271Z,53.37
2019-04-21T07:27:22.304Z,52.07
2019-04-21T07:29:58.268Z,51.92
2019-04-21T07:32:29.119Z,51.76
2019-04-21T07:35:05.248Z,51.86
2019-04-21T07:37:30.517Z,51.79
2019-04-21T07:39:58.683Z,51.34
2019-04-21T07:42:28.239Z,50.68
2019-04-21T07:44:57.977Z,50.59
2019-04-21T07:47:44.812Z,50.16
2019-04-21T07:50:27.459Z,50.36
2019-04-21T07:53:17.067Z,50.47
2019-04-21T07:58:13.253Z,51.27
2019-04-21T08:03:13.925Z,51.31
2019-04-21T08:05:47.154Z,51.16
2019-04-21T08:08:15.981Z,51.07
2019-04-21T08:10:50.732Z,50.89
2019-04-21T08:13:31.609Z,50.73
2019-04-21T08:15:51.046Z,50.56
2019-04-21T08:18:28.673Z,49.84
2019-04-21T08:20:53.380Z,46.61
2019-04-21T08:23:34.098Z,43.50
2019-04-21T08:26:06.092Z,43.53
2019-04-21T08:28:33.819Z,42.07
2019-04-21T08:31:10.083Z,41.12
2019-04-21T08:33:46.321Z,41.42
2019-04-21T08:36:19.078Z,42.59
2019-04-21T08:38:45.876Z,43.06
2019-04-21T08:41:12.362Z,43.56
2019-04-21T08:43:45.598Z,43.20
2019-04-21T08:46:20.325Z,43.02
2019-04-21T08:48:49.649Z,42.34
2019-04-21T08:51:27.671Z,41.74
2019-04-21T08:53:56.765Z,42.58
2019-04-21T08:56:52.890Z,42.82
2019-04-21T08:59:51.436Z,42.78
2019-04-21T09:02:35.251Z,42.39
2019-04-21T09:05:04.694Z,42.62
2019-04-21T09:10:04.230Z,43.10
2019-04-21T09:12:39.272Z,42.67
2019-04-21T09:15:11.448Z,42.59
2019-04-21T09:17:32.796Z,41.94
2019-04-21T09:20:17.263Z,40.92
2019-04-21T09:22:41.319Z,42.25
2019-04-21T09:25:19.994Z,42.47
2019-04-21T09:27:42.474Z,42.26
2019-04-21T09:30:03.479Z,40.72
2019-04-21T09:32:34.824Z,40.18
2019-04-21T09:35:10.269Z,40.58
2019-04-21T09:37:44.431Z,40.94
2019-04-21T09:40:06.922Z,41.10
2019-04-21T09:42:50.371Z,40.94
2019-04-21T09:45:15.648Z,40.59
2019-04-21T09:47:55.722Z,40.18
2019-04-21T09:50:17.662Z,40.31
2019-04-21T09:52:54.332Z,40.35
2019-04-21T09:55:22.795Z,40.14
2019-04-21T09:57:55.323Z,40.34
2019-04-21T10:00:25.292Z,39.57
2019-04-21T10:03:00.846Z,39.97
2019-04-21T10:05:31.593Z,39.39
2019-04-21T10:08:01.324Z,39.50
2019-04-21T10:10:31.946Z,39.59
2019-04-21T10:13:02.879Z,39.07
2019-04-21T10:15:33.260Z,38.48
2019-04-21T10:18:15.210Z,38.28
2019-04-21T10:20:44.911Z,38.53
2019-04-21T10:23:15.542Z,38.46
2019-04-21T10:25:46.364Z,39.18
2019-04-21T10:28:17.167Z,39.18
2019-04-21T10:30:50.963Z,38.97
2019-04-21T10:33:21.939Z,38.76
2019-04-21T10:35:52.992Z,38.79
2019-04-21T10:38:33.248Z,38.57
2019-04-21T10:40:54.347Z,39.75
2019-04-21T10:43:29.294Z,40.51
2019-04-21T10:45:59.025Z,39.58
2019-04-21T10:48:31.227Z,38.95
2019-04-21T10:51:01.127Z,38.88
2019-04-21T10:53:34.546Z,38.51
2019-04-21T10:56:15.723Z,38.67
2019-04-21T10:58:38.325Z,38.49
2019-04-21T11:01:27.330Z,37.83
2019-04-21T11:04:17.196Z,38.24
2019-04-21T11:06:42.466Z,38.19
2019-04-21T11:09:12.187Z,38.56
2019-04-21T11:11:44.991Z,38.33
2019-04-21T11:14:13.857Z,38.15
2019-04-21T11:16:45.835Z,38.06
2019-04-21T11:19:15.944Z,37.94
2019-04-21T11:21:47.057Z,37.76
2019-04-21T11:24:18.105Z,38.48
2019-04-21T11:26:49.584Z,38.24
2019-04-21T11:29:21.131Z,38.18
2019-04-21T11:31:51.338Z,38.37
2019-04-21T11:34:21.181Z,38.64
2019-04-21T11:36:56.913Z,37.82
2019-04-21T11:39:39.556Z,37.44
2019-04-21T11:42:05.898Z,38.53
2019-04-21T11:44:37.227Z,37.69
2019-04-21T11:47:10.243Z,37.84
2019-04-21T11:49:43.072Z,38.14
2019-04-21T11:52:13.678Z,37.57
2019-04-21T11:54:44.652Z,38.29
2019-04-21T11:57:22.033Z,37.79
2019-04-21T11:59:47.924Z,37.69
2019-04-21T12:02:17.538Z,37.69
2019-04-21T12:04:49.531Z,37.57
2019-04-21T12:07:19.718Z,37.51
2019-04-21T12:09:49.195Z,37.29
2019-04-21T12:12:21.338Z,37.13
2019-04-21T12:14:52.205Z,37.32
2019-04-21T12:17:23.730Z,37.20
2019-04-21T12:19:54.744Z,37.01
2019-04-21T12:22:28.945Z,37.17
2019-04-21T12:24:57.495Z,37.09
2019-04-21T12:27:28.092Z,37.18
2019-04-21T12:29:58.054Z,37.48
2019-04-21T12:32:46.303Z,37.73
2019-04-21T12:35:17.531Z,37.25
2019-04-21T12:37:47.208Z,37.05
2019-04-21T12:40:17.096Z,37.51
2019-04-21T12:42:48.608Z,37.01
2019-04-21T12:45:19.347Z,36.94
2019-04-21T12:47:52.008Z,37.34
2019-04-21T12:50:21.726Z,37.06
2019-04-21T12:52:51.652Z,37.17
2019-04-21T12:55:26.148Z,37.19
2019-04-21T12:57:55.135Z,37.14
2019-04-21T13:00:25.197Z,36.61
2019-04-21T13:02:56.063Z,36.14
2019-04-21T13:05:27.497Z,36.04
2019-04-21T13:07:57.941Z,36.07
2019-04-21T13:10:28.595Z,36.36
2019-04-21T13:12:59.745Z,37.16
2019-04-21T13:15:31.304Z,36.96
2019-04-21T13:18:05.998Z,36.40
2019-04-21T13:20:35.936Z,36.73
2019-04-21T13:23:05.930Z,36.56
2019-04-21T13:25:37.800Z,36.26
2019-04-21T13:28:07.673Z,36.90
2019-04-21T13:30:42.561Z,36.73
2019-04-21T13:33:13.314Z,36.77
2019-04-21T13:35:44.875Z,36.26
2019-04-21T13:38:24.524Z,36.78
2019-04-21T13:41:36.430Z,36.52
2019-04-21T13:44:23.925Z,36.81
2019-04-21T13:46:54.607Z,36.88
2019-04-21T13:49:25.411Z,37.48
2019-04-21T13:51:56.139Z,37.64
2019-04-21T13:54:27.454Z,36.80
2019-04-21T13:57:08.237Z,36.95
2019-04-21T13:59:38.423Z,36.66
2019-04-21T14:02:11.158Z,36.37
2019-04-21T14:04:41.173Z,36.60
2019-04-21T14:07:12.240Z,37.11
2019-04-21T14:09:52.703Z,36.81
2019-04-21T14:12:21.322Z,36.34
2019-04-21T14:14:52.441Z,36.21
2019-04-21T14:17:24.661Z,36.51
2019-04-21T14:19:55.242Z,36.25
2019-04-21T14:22:26.444Z,35.94
2019-04-21T14:24:56.422Z,35.77
2019-04-21T14:27:26.248Z,35.76
2019-04-21T14:29:55.984Z,35.91
2019-04-21T14:32:26.531Z,35.91
2019-04-21T14:34:56.747Z,35.78
2019-04-21T14:37:26.627Z,35.72
2019-04-21T14:40:03.975Z,35.52
2019-04-21T14:42:27.572Z,34.90
2019-04-21T14:44:58.830Z,35.16
2019-04-21T14:47:38.043Z,34.98
2019-04-21T14:50:28.250Z,35.02
2019-04-21T14:53:16.071Z,36.09
2019-04-21T14:55:46.688Z,35.93
2019-04-21T14:58:17.210Z,36.46
2019-04-21T15:00:57.767Z,36.19
2019-04-21T15:03:32.084Z,36.07
2019-04-21T15:06:03.315Z,35.93
2019-04-21T15:08:33.456Z,35.73
2019-04-21T15:11:03.253Z,35.48
2019-04-21T15:13:32.935Z,35.39
2019-04-21T15:16:08.896Z,36.06
2019-04-21T15:18:40.991Z,35.96
2019-04-21T15:21:11.196Z,36.25
2019-04-21T15:23:42.133Z,36.19
2019-04-21T15:26:14.342Z,35.83
2019-04-21T15:28:46.779Z,35.73
2019-04-21T15:31:25.698Z,35.73
2019-04-21T15:33:49.490Z,35.79
2019-04-21T15:36:20.862Z,36.70
2019-04-21T15:38:51.981Z,36.33
2019-04-21T15:41:22.646Z,36.26
2019-04-21T15:43:54.373Z,36.29
2019-04-21T15:46:24.880Z,36.16
2019-04-21T15:48:55.126Z,36.47
2019-04-21T15:51:28.091Z,36.67
2019-04-21T15:53:58.134Z,36.91
2019-04-21T15:56:38.614Z,36.98
2019-04-21T15:59:26.411Z,37.50
2019-04-21T16:02:24.642Z,37.97
2019-04-21T16:04:54.873Z,38.26
2019-04-21T16:07:26.755Z,37.79
2019-04-21T16:09:57.619Z,37.75
2019-04-21T16:12:29.591Z,37.80
2019-04-21T16:15:00.697Z,37.62
2019-04-21T16:17:30.463Z,37.51
2019-04-21T16:20:02.043Z,37.76
2019-04-21T16:22:32.658Z,37.94
2019-04-21T16:25:03.324Z,38.03
2019-04-21T16:27:35.184Z,38.27
2019-04-21T16:30:07.816Z,38.57
2019-04-21T16:32:38.391Z,38.39
2019-04-21T16:35:11.106Z,38.50
2019-04-21T16:37:41.442Z,38.49
2019-04-21T16:40:11.771Z,38.54
2019-04-21T16:42:42.516Z,38.66
2019-04-21T16:45:14.770Z,39.22
2019-04-21T16:47:49.059Z,39.28
2019-04-21T16:50:19.490Z,39.91
2019-04-21T16:53:02.164Z,39.97
2019-04-21T16:55:39.396Z,40.17
2019-04-21T16:58:34.581Z,40.03
2019-04-21T17:01:13.972Z,39.94
2019-04-21T17:03:40.358Z,39.70
2019-04-21T17:06:13.225Z,39.76
2019-04-21T17:08:47.037Z,39.93
2019-04-21T17:11:23.787Z,39.76
2019-04-21T17:13:56.608Z,39.70
2019-04-21T17:16:50.870Z,39.55
2019-04-21T17:19:13.198Z,39.84
2019-04-21T17:21:34.355Z,39.63
2019-04-21T17:24:04.623Z,39.59
2019-04-21T17:26:39.391Z,39.35
2019-04-21T17:29:07.887Z,39.43
2019-04-21T17:31:39.244Z,39.22
2019-04-21T17:34:16.433Z,38.71
2019-04-21T17:36:43.150Z,38.60
2019-04-21T17:39:13.230Z,38.42
2019-04-21T17:41:59.173Z,38.30
2019-04-21T17:44:15.085Z,38.25
2019-04-21T17:46:51.885Z,38.43
2019-04-21T17:49:17.009Z,38.35
2019-04-21T17:52:19.232Z,38.32
2019-04-21T17:54:51.260Z,38.07
2019-04-21T17:57:37.956Z,38.35
2019-04-21T18:00:14.206Z,38.57
2019-04-21T18:02:47.926Z,38.50
2019-04-21T18:05:16.678Z,38.63
2019-04-21T18:07:44.959Z,38.65
2019-04-21T18:10:11.430Z,38.89
2019-04-21T18:12:39.761Z,39.00
2019-04-21T18:15:17.590Z,39.03
2019-04-21T18:17:32.162Z,39.13
2019-04-21T18:20:01.990Z,39.26
2019-04-21T18:22:51.321Z,39.66
2019-04-21T18:25:34.976Z,39.75
2019-04-21T18:27:54.547Z,39.99
2019-04-21T18:30:42.469Z,40.06
2019-04-21T18:33:21.288Z,40.21
2019-04-21T18:36:02.992Z,40.25
2019-04-21T18:39:18.132Z,40.41
2019-04-21T18:41:34.703Z,40.53
2019-04-21T18:44:32.262Z,40.59
2019-04-21T18:47:09.061Z,40.56
2019-04-21T18:49:25.636Z,40.60
2019-04-21T18:52:17.104Z,40.77
2019-04-21T18:54:57.588Z,41.03
2019-04-21T18:57:19.540Z,41.19
2019-04-21T18:59:44.010Z,41.35
2019-04-21T19:02:17.491Z,41.58
2019-04-21T19:04:44.948Z,41.74
2019-04-21T19:07:30.540Z,41.78
2019-04-21T19:13:07.935Z,42.08
2019-04-21T19:15:07.701Z,42.21
2019-04-21T19:20:15.384Z,42.52
2019-04-21T19:22:41.700Z,42.69
2019-04-21T19:25:16.437Z,42.83
2019-04-21T19:27:53.304Z,43.15
2019-04-21T19:30:30.145Z,43.24
2019-04-21T19:32:51.377Z,43.26
2019-04-21T19:35:07.115Z,43.70
2019-04-21T19:37:45.212Z,44.00
2019-04-21T19:40:29.058Z,43.98
2019-04-21T19:42:50.926Z,44.11
2019-04-21T19:45:28.090Z,44.15
2019-04-21T19:48:08.144Z,44.23
2019-04-21T19:50:43.853Z,44.46
2019-04-21T19:53:00.510Z,44.55
2019-04-21T19:55:24.386Z,44.61
2019-04-21T19:57:54.777Z,44.81
2019-04-21T20:00:26.463Z,45.06
2019-04-21T20:02:56.712Z,45.06
2019-04-21T20:05:36.151Z,45.31
2019-04-21T20:08:17.383Z,45.42
2019-04-21T20:10:48.377Z,45.28
2019-04-21T20:13:33.416Z,44.97
2019-04-21T20:15:52.406Z,44.78
2019-04-21T20:18:18.781Z,44.78
2019-04-21T20:20:37.282Z,44.83
2019-04-21T20:23:19.281Z,44.67
2019-04-21T20:25:52.555Z,44.74
2019-04-21T20:28:30.992Z,45.16
2019-04-21T20:31:09.696Z,45.09
2019-04-21T20:36:16.956Z,45.61
2019-04-21T20:38:35.858Z,46.35
2019-04-21T20:41:02.214Z,46.90
2019-04-21T20:43:45.625Z,47.18
2019-04-21T20:46:12.532Z,47.45
2019-04-21T20:48:45.255Z,47.82
2019-04-21T20:51:18.079Z,48.11
2019-04-21T20:53:50.906Z,48.35
2019-04-21T20:56:15.597Z,48.36
2019-04-21T20:58:55.439Z,48.45
2019-04-21T21:03:56.467Z,48.35
2019-04-21T21:06:26.171Z,48.37
2019-04-21T21:09:01.520Z,48.29
2019-04-21T21:11:35.318Z,48.13
2019-04-21T21:14:09.992Z,48.20
2019-04-21T21:16:45.006Z,48.75
2019-04-21T21:19:18.236Z,49.38
2019-04-21T21:21:34.107Z,49.67
2019-04-21T21:24:08.621Z,49.83
2019-04-21T21:26:51.781Z,49.76
2019-04-21T21:29:22.815Z,49.69
2019-04-21T21:32:04.343Z,49.43
2019-04-21T21:34:28.084Z,49.42
2019-04-21T21:36:57.608Z,49.61
2019-04-21T21:39:35.580Z,49.71
2019-04-21T21:41:49.772Z,49.96
2019-04-21T21:44:22.771Z,50.28
2019-04-21T21:47:04.283Z,50.54
2019-04-21T21:49:33.634Z,50.55
2019-04-21T21:52:06.143Z,50.49
2019-04-21T21:54:31.751Z,50.37
2019-04-21T21:57:04.869Z,50.10
2019-04-21T21:59:38.176Z,49.90
2019-04-21T22:02:09.376Z,49.61
2019-04-21T22:04:44.486Z,49.22
2019-04-21T22:07:15.144Z,48.91
2019-04-21T22:09:41.990Z,48.77
2019-04-21T22:12:12.475Z,48.76
2019-04-21T22:14:47.942Z,48.71
2019-04-21T22:17:29.486Z,48.69
2019-04-21T22:20:12.300Z,48.75
2019-04-21T22:22:31.212Z,48.93
2019-04-21T22:24:59.120Z,48.94
2019-04-21T22:27:23.218Z,49.12
2019-04-21T22:29:58.077Z,49.26
2019-04-21T22:32:29.064Z,49.25
2019-04-21T22:35:02.091Z,49.37
2019-04-21T22:37:41.575Z,49.50
2019-04-21T22:40:13.695Z,49.45
2019-04-21T22:42:44.452Z,49.32
2019-04-21T22:45:05.046Z,49.36
2019-04-21T22:47:39.228Z,49.74
2019-04-21T22:50:06.792Z,50.13
2019-04-21T22:52:37.485Z,50.13
2019-04-21T22:55:16.736Z,50.91
2019-04-21T22:57:48.023Z,51.08
2019-04-21T23:00:16.715Z,50.83
2019-04-21T23:02:46.908Z,50.55
2019-04-21T23:05:24.112Z,50.96
2019-04-21T23:07:54.832Z,51.61
2019-04-21T23:10:23.354Z,52.23
2019-04-21T23:12:59.599Z,52.39
2019-04-21T23:15:34.505Z,52.03
2019-04-21T23:18:11.929Z,51.66
2019-04-21T23:20:47.670Z,51.88
2019-04-21T23:23:26.432Z,51.92
2019-04-21T23:25:53.069Z,52.09
2019-04-21T23:28:29.704Z,52.09
2019-04-21T23:31:01.080Z,52.11
2019-04-21T23:33:16.435Z,52.19
2019-04-21T23:35:49.252Z,52.39
2019-04-21T23:38:27.901Z,52.35
2019-04-21T23:40:55.826Z,52.35
2019-04-21T23:43:26.396Z,52.05
2019-04-21T23:45:53.991Z,52.15
2019-04-21T23:48:36.442Z,52.39
2019-04-21T23:51:10.925Z,52.49
2019-04-21T23:53:27.067Z,52.34
2019-04-21T23:55:57.144Z,52.74
2019-04-21T23:58:30.891Z,52.90
